x

Mid Gulf - 180 Nm South Of Southwest Pass, La (42001) Wave Buoy

9:50pm - Mon 30th Mar 2015 All times are UTC.

  • Sig Wave height 3.0ft
  • Peak Period 7s
  • Average Period 5s
  • Wind
    7mph, 9mph gusts
  • Sea Temp 78°f
  • Air Temp 76°f
  • Sea Pressure 1022.5mb

More Historic Weather Station data

Upgrade to MSW Pro to gain access to the past 30 days of data for over 8000 Wavebouys and Weather Stations around the globe.

Join Pro

Comparision Forecast

View Surf forecast
   
Mon 03/30 9:50pm 3ft 7s 5s 7 9 mph 1022.5mb 78f 76f
8:50pm 3ft 7s 5s 7 9 mph 1022.8mb 79f 76f
7:50pm 3ft 7s 5s 7 9 mph 1023.4mb 78f 76f
6:50pm 3.5ft 6s 5s 7 9 mph 1024.3mb 78f 75f
5:50pm 3.5ft 7s 5s 9 11 mph 1024.8mb 77f 75f
4:50pm 3ft 7s 5s 9 13 mph 1025mb 77f 75f
3:50pm 3.5ft 6s 5s 11 13 mph 1024.7mb 77f 75f
2:50pm 3.5ft 6s 5s 13 16 mph 1024.3mb 77f 75f
1:50pm 3.5ft 6s 4s 13 16 mph 1024.3mb 77f 75f
12:50pm 3.5ft 6s 4s 11 13 mph 1024.1mb 77f 74f
11:50am 3.5ft 6s 4s 13 16 mph 1023.5mb 77f 74f
10:50am 3.5ft 6s 4s 13 18 mph 1022.8mb 77f 74f
9:50am 3ft 6s 4s 16 20 mph 1022.2mb 77f 74f
8:50am 3ft 5s 4s 16 20 mph 1022.3mb 78f 74f
7:50am 3.5ft 5s 4s 18 20 mph 1022.8mb 78f 74f
6:50am 3.5ft 5s 4s 18 22 mph 1023.4mb 78f 74f
5:50am 3ft 5s 4s 18 22 mph 1023.9mb 78f 74f
4:50am 3ft 4s 4s 18 20 mph 1024.8mb 78f 74f
3:50am 3ft 4s 4s 18 20 mph 1025mb 78f 74f
2:50am 3ft 4s 4s 18 20 mph 1025.1mb 78f 74f
1:50am 2.5ft 4s 3s 20 22 mph 1024.1mb 78f 74f
12:50am 2.5ft 3s 3s 18 22 mph 1023.8mb 78f 74f
Sun 03/29 11:50pm 2ft 3s 3s 18 22 mph 1023.5mb 79f 74f
10:50pm 1.6ft 2s 3s 16 20 mph 1023.4mb 79f 74f
9:50pm 1.3ft 5s 3s 18 20 mph 1023.3mb 79f 75f
8:50pm 1.3ft 5s 3s 16 18 mph 1023.8mb 79f 75f
7:50pm 1.3ft 5s 3s 13 16 mph 1024.5mb 79f 75f
6:50pm 1.3ft 5s 4s 13 16 mph 1025.1mb 79f 75f
5:50pm 1.3ft 5s 4s 13 16 mph 1025.7mb 79f 75f
4:50pm 1.3ft 6s 4s 13 18 mph 1026.3mb 79f 75f
3:50pm 1.3ft 5s 5s 13 16 mph 1026.4mb 79f 74f
2:50pm 1.6ft 6s 5s 11 13 mph 1026mb 78f 74f
1:50pm 1.6ft 5s 5s 9 13 mph 1025.4mb 78f 74f
12:50pm 1.6ft 6s 5s 11 13 mph 1024.7mb 78f 74f
11:50am 1.6ft 5s 5s 9 13 mph 1024.2mb 78f 73f
10:50am 1.6ft 5s 5s 9 11 mph 1023.5mb 78f 73f
9:50am 1.6ft 5s 5s 9 11 mph 1023.2mb 79f 73f
8:50am 2ft 6s 5s 9 11 mph 1023mb 79f 73f
7:50am 2.5ft 6s 5s 7 11 mph 1023mb 79f 73f
6:50am 2ft 5s 5s 7 9 mph 1023.6mb 79f 73f
5:50am 2ft 6s 5s 7 11 mph 1024mb 79f 73f
4:50am 2.5ft 5s 5s 4 9 mph 1024.3mb 79f 74f
3:50am 2.5ft 6s 5s 7 9 mph 1024.5mb 79f 74f
2:50am 2.5ft 6s 5s 4 9 mph 1024.2mb 80f 74f
1:50am 2.5ft 6s 5s 9 11 mph 1023.5mb 80f 74f
12:50am 2.5ft 6s 5s 7 9 mph 1023.1mb 80f 74f
Sat 03/28 11:50pm 2.5ft 6s 5s 4 7 mph 1022.5mb 80f 74f
10:50pm 3ft 6s 5s 4 9 mph 1022.2mb 80f 74f
9:50pm 3ft 6s 5s 9 13 mph 1021.9mb 81f 74f
8:50pm 3ft 6s 5s 9 13 mph 1022.1mb 81f 74f
7:50pm 3.5ft 6s 5s 11 13 mph 1022.4mb 80f 74f
6:50pm 3.5ft 7s 5s 9 11 mph 1023mb 80f 74f
5:50pm 3.5ft 7s 5s 9 13 mph 1023.4mb 80f 74f
4:50pm 3.5ft 6s 5s 7 11 mph 1024mb 80f 74f
3:50pm 4.5ft 6s 5s 9 13 mph 1024.1mb 80f 74f
2:50pm 4.5ft 7s 5s 16 18 mph 1023.6mb 80f 73f
1:50pm 4.5ft 8s 5s 13 16 mph 1023.2mb 80f 73f
12:50pm 5ft 8s 5s 18 22 mph 1022.4mb 80f 73f
11:50am 5.5ft 8s 6s 20 27 mph 1021.9mb 80f 73f
10:50am 5.5ft 8s 6s 18 22 mph 1021.1mb 80f 72f
9:50am 6ft 8s 6s 20 25 mph 1020.6mb 80f 72f
8:50am 6ft 8s 6s 22 27 mph 1020.1mb 79f 72f
7:50am 7ft 8s 6s 20 27 mph 1020.3mb 79f 73f
6:50am 7ft 8s 6s 22 29 mph 1020.3mb 79f 73f
5:50am 7ft 8s 6s 22 29 mph 1020.6mb 79f 73f
4:50am 7ft 9s 6s 22 27 mph 1020.5mb 79f 73f
3:50am 8ft 9s 6s 22 27 mph 1020.5mb 79f 73f
2:50am 7ft 9s 6s 22 27 mph 1019.7mb 79f 72f
1:50am 8ft 9s 6s 22 29 mph 1018.9mb 80f 72f
12:50am 8.5ft 8s 6s 22 29 mph 1018.5mb 80f 72f
Fri 03/27 11:50pm 8ft 8s 6s 25 29 mph 1017.9mb 80f 71f
10:50pm 8.5ft 8s 6s 22 29 mph 1017.8mb 80f 71f
9:50pm 8ft 8s 6s 22 27 mph 1017.2mb 80f 70f
8:50pm 8.5ft 8s 6s 27 31 mph 1016.5mb 80f 71f
7:50pm 9ft 8s 6s 25 31 mph 1016.7mb 80f 71f
6:50pm 9ft 8s 6s 22 29 mph 1017.2mb 80f 71f
5:50pm 8.5ft 8s 6s 25 31 mph 1017.3mb 80f 72f
4:50pm 7ft 7s 6s 27 34 mph 1017mb 80f 72f
2:50pm 3.5ft 6s 5s 27 34 mph 1016mb 79f 74f
1:50pm 2.5ft 6s 5s 22 29 mph 1015.2mb 79f 74f
12:50pm 2.5ft 6s 5s 7 11 mph 1014.7mb 79f 74f
11:50am 3ft 5s 5s 4 7 mph 1013.8mb 79f 75f
10:50am 3ft 6s 5s 7 9 mph 1013.1mb 79f 74f
9:50am 3.5ft 6s 5s 4 7 mph 1012.6mb 79f 75f
8:50am 4ft 6s 5s 13
mph
1012.9mb 79f 74f
7:50am 4.5ft 6s 5s 9 11 mph 1013.6mb 79f 73f
6:50am 5ft 6s 5s 13 16 mph 1013.9mb 79f 71f
5:50am 6ft 7s 5s 16 20 mph 1013.9mb 79f 72f
4:50am 6ft 7s 5s 22 27 mph 1013.4mb 79f 73f
3:50am 5ft 6s 5s 25 27 mph 1014.2mb 79f 71f
2:50am 5ft 7s 5s 25 31 mph 1014.4mb 79f 71f
1:50am 5.5ft 7s 6s 25 31 mph 1013.6mb 79f 71f
12:50am 6.5ft 8s 6s 22 31 mph 1012.2mb 79f 75f
Thu 03/26 11:50pm 6.5ft 7s 6s 20 22 mph 1012mb 80f 79f